Time;durP1;ratioP1;P1;durP2;ratioP2;P2;SDS_P1;SDS_P2;PMS_P1;PMS_P2;Temp;Humidity;BMP_temperature;BMP_pressure;BME280_temperature;BME280_humidity;BME280_pressure;Samples;Min_cycle;Max_cycle;Signal;HPM_P1;HPM_P2
2023/09/08 00:02:18;;;;;;;8.13;7.33;;;;;;;21.46;nan;99580.09;5053683;28;20441;-77
2023/09/08 00:04:43;;;;;;;7.40;6.40;;;;;;;21.43;nan;99583.94;5053830;28;20248;-77
2023/09/08 00:07:08;;;;;;;9.37;7.50;;;;;;;21.40;nan;99586.94;5035849;28;20228;-77
2023/09/08 00:09:34;;;;;;;8.10;6.30;;;;;;;21.36;nan;99582.88;5054666;28;20233;-77
2023/09/08 00:11:59;;;;;;;7.50;6.90;;;;;;;21.31;nan;99586.09;5036759;28;20205;-77
2023/09/08 00:14:25;;;;;;;9.10;6.57;;;;;;;21.29;nan;99582.75;5048553;28;20535;-77
2023/09/08 00:16:54;;;;;;;8.30;6.70;;;;;;;21.27;nan;99581.22;5047156;28;20205;-77
2023/09/08 00:19:19;;;;;;;10.13;6.93;;;;;;;21.24;nan;99579.72;5048842;28;21191;-77
2023/09/08 00:21:45;;;;;;;9.33;7.13;;;;;;;21.22;nan;99581.72;5050007;28;20458;-77
2023/09/08 00:24:11;;;;;;;8.30;6.97;;;;;;;21.20;nan;99581.91;5029696;28;20202;-77
2023/09/08 00:26:36;;;;;;;7.43;6.63;;;;;;;21.20;nan;99583.75;5048697;28;20647;-77
2023/09/08 00:29:01;;;;;;;7.50;6.80;;;;;;;21.21;nan;99583.56;5029702;28;20212;-77
2023/09/08 00:31:27;;;;;;;7.13;6.23;;;;;;;21.16;nan;99585.91;5048766;28;20224;-78
2023/09/08 00:33:52;;;;;;;8.50;6.87;;;;;;;21.08;nan;99590.41;5027693;28;20624;-77
2023/09/08 00:36:19;;;;;;;7.27;6.57;;;;;;;20.99;nan;99586.91;5045447;28;20211;-77
2023/09/08 00:38:44;;;;;;;7.53;5.90;;;;;;;20.89;nan;99592.38;5028135;28;20196;-77
2023/09/08 00:41:11;;;;;;;6.60;5.87;;;;;;;20.82;nan;99587.84;5048484;28;20915;-77
2023/09/08 00:43:36;;;;;;;6.13;5.53;;;;;;;20.76;nan;99598.19;5017143;28;20197;-77
2023/09/08 00:46:03;;;;;;;6.43;5.83;;;;;;;20.74;nan;99596.72;5030626;28;20466;-77
2023/09/08 00:48:29;;;;;;;8.23;6.33;;;;;;;20.71;nan;99597.88;5048080;28;21147;-79
2023/09/08 00:50:55;;;;;;;8.13;6.00;;;;;;;20.70;nan;99596.19;5048456;28;20815;-77
2023/09/08 00:53:21;;;;;;;8.50;6.03;;;;;;;20.70;nan;99598.84;5049176;28;20458;-77
2023/09/08 00:55:47;;;;;;;6.47;5.87;;;;;;;20.72;nan;99596.84;5031689;28;20439;-77
2023/09/08 00:58:12;;;;;;;6.77;6.03;;;;;;;20.75;nan;99587.69;5031741;28;20434;-77
2023/09/08 01:00:38;;;;;;;7.60;6.10;;;;;;;20.75;nan;99599.19;5048655;28;20434;-77
2023/09/08 01:03:04;;;;;;;8.70;7.47;;;;;;;20.76;nan;99598.19;5050119;28;20672;-77
2023/09/08 01:05:31;;;;;;;7.70;6.60;;;;;;;20.74;nan;99597.53;5033362;28;20532;-77
2023/09/08 01:07:59;;;;;;;8.60;6.63;;;;;;;20.70;nan;99601.53;5049853;28;20969;-77
2023/09/08 01:10:24;;;;;;;11.10;7.53;;;;;;;20.65;nan;99597.66;5031832;28;20218;-78
2023/09/08 01:12:50;;;;;;;7.37;6.63;;;;;;;20.60;nan;99600.00;5050646;28;20437;-78
2023/09/08 01:15:15;;;;;;;8.87;7.97;;;;;;;20.55;nan;99598.66;5030195;28;20205;-78
2023/09/08 01:17:40;;;;;;;8.47;7.30;;;;;;;20.51;nan;99599.09;5030813;28;20239;-77
2023/09/08 01:20:10;;;;;;;8.17;7.00;;;;;;;20.48;nan;99600.25;5029712;28;20227;-77
2023/09/08 01:23:21;;;;;;;7.83;7.10;;;;;;;20.47;nan;99608.44;5047139;28;20208;-77
2023/09/08 01:25:54;;;;;;;8.23;7.40;;;;;;;20.42;nan;99600.91;5016292;28;20471;-77
2023/09/08 01:28:21;;;;;;;8.37;7.53;;;;;;;20.41;nan;99601.88;5047682;28;20451;-77
2023/09/08 01:30:47;;;;;;;11.00;7.80;;;;;;;20.41;nan;99607.22;5046904;28;20455;-78
2023/09/08 01:33:13;;;;;;;8.87;7.00;;;;;;;20.40;nan;99608.22;5047209;28;20435;-77
2023/09/08 01:35:39;;;;;;;7.77;6.97;;;;;;;20.39;nan;99603.91;5047056;28;20432;-77
2023/09/08 01:38:04;;;;;;;8.40;6.97;;;;;;;20.37;nan;99603.22;5049064;28;20291;-77
2023/09/08 01:40:30;;;;;;;9.33;8.33;;;;;;;20.37;nan;99589.88;5049223;28;20199;-78
2023/09/08 01:42:56;;;;;;;9.47;7.23;;;;;;;20.36;nan;99590.91;5028609;28;20447;-78
2023/09/08 01:45:22;;;;;;;7.13;6.50;;;;;;;20.37;nan;99595.22;5031371;28;20216;-77
2023/09/08 01:47:47;;;;;;;8.83;7.83;;;;;;;20.38;nan;99596.88;5048589;28;20761;-78
2023/09/08 01:50:12;;;;;;;8.23;7.43;;;;;;;20.39;nan;99590.56;5031548;28;20222;-78
2023/09/08 01:52:38;;;;;;;9.17;8.27;;;;;;;20.39;nan;99595.03;5031057;28;20222;-78
2023/09/08 01:55:04;;;;;;;10.47;7.93;;;;;;;20.37;nan;99597.88;5047889;28;20441;-77
2023/09/08 01:57:29;;;;;;;8.20;7.40;;;;;;;20.35;nan;99597.22;5029474;28;20209;-77
2023/09/08 01:59:55;;;;;;;8.37;7.57;;;;;;;20.29;nan;99595.19;5028749;28;20212;-77
2023/09/08 02:02:20;;;;;;;8.80;7.43;;;;;;;20.26;nan;99591.00;5028548;28;20247;-77
2023/09/08 02:04:46;;;;;;;9.20;6.87;;;;;;;20.25;nan;99593.81;5045418;28;20201;-77
2023/09/08 02:07:12;;;;;;;7.80;6.70;;;;;;;20.24;nan;99587.66;5028502;28;20219;-77
2023/09/08 02:09:37;;;;;;;10.63;7.50;;;;;;;20.24;nan;99590.31;5028980;28;20476;-77
2023/09/08 02:12:03;;;;;;;8.30;7.57;;;;;;;20.22;nan;99588.81;5045453;28;20671;-77
2023/09/08 02:14:29;;;;;;;7.40;6.60;;;;;;;20.21;nan;99597.81;5046097;28;20202;-78
2023/09/08 02:16:55;;;;;;;8.67;7.87;;;;;;;20.19;nan;99597.13;5047281;28;20466;-78
2023/09/08 02:19:23;;;;;;;7.90;6.60;;;;;;;20.18;nan;99598.97;5030071;28;20210;-77
2023/09/08 02:21:48;;;;;;;7.80;7.10;;;;;;;20.16;nan;99586.78;5043127;28;21148;-77
2023/09/08 02:24:14;;;;;;;7.73;7.07;;;;;;;20.16;nan;99586.78;5042792;28;20714;-78
2023/09/08 02:26:40;;;;;;;7.20;6.60;;;;;;;20.14;nan;99584.28;5042189;28;20667;-77
2023/09/08 02:29:05;;;;;;;9.00;7.23;;;;;;;20.10;nan;99585.59;5024798;28;20226;-77
2023/09/08 02:31:31;;;;;;;8.20;7.10;;;;;;;20.07;nan;99586.75;5027907;28;20475;-78
2023/09/08 02:33:57;;;;;;;7.40;6.73;;;;;;;20.03;nan;99588.06;5031436;28;20461;-77
2023/09/08 02:36:25;;;;;;;7.80;7.10;;;;;;;20.00;nan;99585.72;5044070;28;20257;-77
2023/09/08 02:38:52;;;;;;;8.07;7.13;;;;;;;19.98;nan;99587.72;5028507;28;20216;-77
2023/09/08 02:41:18;;;;;;;9.30;8.37;;;;;;;19.97;nan;99587.88;5028988;28;20460;-78
2023/09/08 02:43:43;;;;;;;8.07;7.37;;;;;;;19.96;nan;99588.88;5043374;28;20474;-77
2023/09/08 02:46:09;;;;;;;8.20;7.30;;;;;;;19.95;nan;99588.00;5029455;28;21143;-78
2023/09/08 02:48:35;;;;;;;9.40;7.50;;;;;;;19.95;nan;99587.19;5027798;28;20686;-77
2023/09/08 02:51:01;;;;;;;8.87;8.00;;;;;;;19.92;nan;99585.66;5028855;28;20560;-77
2023/09/08 02:53:28;;;;;;;8.77;7.97;;;;;;;19.89;nan;99593.97;5048395;28;20199;-77
2023/09/08 02:55:55;;;;;;;10.30;8.57;;;;;;;19.86;nan;99583.66;5027874;28;20221;-76
2023/09/08 02:58:20;;;;;;;8.40;7.60;;;;;;;19.82;nan;99583.13;5045676;28;20476;-77
2023/09/08 03:00:47;;;;;;;8.67;7.77;;;;;;;19.80;nan;99578.94;5047116;28;20903;-77
2023/09/08 03:03:12;;;;;;;8.50;7.70;;;;;;;19.80;nan;99581.63;5045605;28;20729;-77
2023/09/08 03:05:37;;;;;;;8.93;7.30;;;;;;;19.78;nan;99584.44;5047711;28;20248;-77
2023/09/08 03:08:03;;;;;;;6.77;6.07;;;;;;;19.78;nan;99586.25;5030967;28;20267;-77
2023/09/08 03:10:29;;;;;;;7.23;6.37;;;;;;;19.79;nan;99580.75;5028668;28;20214;-76
2023/09/08 03:12:54;;;;;;;7.50;6.83;;;;;;;19.80;nan;99585.13;5046832;28;20796;-78
2023/09/08 03:15:20;;;;;;;8.90;8.00;;;;;;;19.81;nan;99586.78;5046873;28;20230;-78
2023/09/08 03:17:46;;;;;;;13.17;8.30;;;;;;;19.82;nan;99588.47;5047663;28;21257;-78
2023/09/08 03:20:13;;;;;;;7.00;6.30;;;;;;;19.80;nan;99587.78;5048084;28;20440;-78
2023/09/08 03:22:38;;;;;;;6.27;5.57;;;;;;;19.75;nan;99591.91;5031190;28;20209;-78
2023/09/08 03:25:05;;;;;;;5.97;5.40;;;;;;;19.69;nan;99604.03;5032915;28;21080;-78
2023/09/08 03:27:30;;;;;;;7.33;6.53;;;;;;;19.65;nan;99598.13;5036206;28;20193;-78
2023/09/08 03:29:55;;;;;;;8.80;6.17;;;;;;;19.61;nan;99602.13;5051299;28;20503;-78
2023/09/08 03:32:21;;;;;;;6.70;4.60;;;;;;;19.54;nan;99595.72;5055808;28;20200;-78
2023/09/08 03:34:47;;;;;;;5.70;5.10;;;;;;;19.49;nan;99599.84;5037106;28;20552;-78
2023/09/08 03:37:15;;;;;;;6.65;5.95;;;;;;;19.47;nan;99597.34;5054951;28;20561;-78
2023/09/08 03:39:40;;;;;;;6.93;6.33;;;;;;;19.47;nan;99600.03;5038280;28;20224;-78
2023/09/08 03:42:06;;;;;;;7.47;6.67;;;;;;;19.44;nan;99595.84;5036832;28;20453;-78
2023/09/08 03:44:32;;;;;;;7.13;6.20;;;;;;;19.41;nan;99601.44;5039515;28;20208;-78
2023/09/08 03:46:57;;;;;;;6.63;6.00;;;;;;;19.39;nan;99602.63;5041630;28;20206;-82
2023/09/08 03:49:22;;;;;;;8.20;7.40;;;;;;;19.36;nan;99597.56;5044244;28;20263;-78
2023/09/08 03:51:48;;;;;;;7.17;6.50;;;;;;;19.31;nan;99606.06;5057427;28;20419;-78
2023/09/08 03:54:13;;;;;;;6.60;6.00;;;;;;;19.27;nan;99599.34;5055877;28;20190;-78
2023/09/08 03:56:39;;;;;;;6.40;5.87;;;;;;;19.23;nan;99598.00;5054575;28;20310;-78
2023/09/08 03:59:04;;;;;;;7.33;6.63;;;;;;;19.20;nan;99599.13;5054497;28;20213;-78
2023/09/08 04:01:29;;;;;;;8.77;7.87;;;;;;;19.20;nan;99595.63;5037592;28;21369;-78
2023/09/08 04:03:55;;;;;;;7.80;7.00;;;;;;;19.20;nan;99604.47;5035843;28;20197;-78
2023/09/08 04:06:20;;;;;;;8.03;7.30;;;;;;;19.21;nan;99598.13;5054083;28;20201;-78
2023/09/08 04:08:46;;;;;;;9.00;7.10;;;;;;;19.24;nan;99597.81;5035369;28;20201;-78
2023/09/08 04:11:11;;;;;;;10.70;7.20;;;;;;;19.27;nan;99595.84;5034903;28;20754;-78
2023/09/08 04:13:37;;;;;;;7.63;6.90;;;;;;;19.31;nan;99599.84;5053441;28;20202;-79
2023/09/08 04:16:02;;;;;;;7.23;6.40;;;;;;;19.33;nan;99600.56;5037660;28;20240;-78
2023/09/08 04:18:28;;;;;;;8.00;6.77;;;;;;;19.36;nan;99603.75;5033913;28;20239;-78
2023/09/08 04:20:53;;;;;;;7.93;7.20;;;;;;;19.37;nan;99596.59;5034970;28;20205;-78
2023/09/08 04:23:19;;;;;;;9.30;8.40;;;;;;;19.38;nan;99603.59;5034067;28;20208;-78
2023/09/08 04:25:45;;;;;;;8.20;7.37;;;;;;;19.39;nan;99603.44;5050660;28;20198;-78
2023/09/08 04:28:11;;;;;;;8.40;7.60;;;;;;;19.39;nan;99598.13;5035637;28;20198;-78
2023/09/08 04:30:36;;;;;;;8.60;7.80;;;;;;;19.39;nan;99598.13;5034903;28;20464;-79
2023/09/08 04:33:02;;;;;;;10.47;8.87;;;;;;;19.39;nan;99599.97;5055620;28;21288;-78
2023/09/08 04:35:27;;;;;;;9.50;8.60;;;;;;;19.40;nan;99602.44;5050030;28;20471;-78
2023/09/08 04:37:53;;;;;;;11.80;7.83;;;;;;;19.40;nan;99604.28;5051214;28;20260;-78
2023/09/08 04:40:19;;;;;;;11.40;8.27;;;;;;;19.37;nan;99610.75;5033972;28;20210;-78
2023/09/08 04:42:45;;;;;;;9.40;8.40;;;;;;;19.34;nan;99611.06;5038016;28;20202;-78
2023/09/08 04:45:11;;;;;;;9.13;8.33;;;;;;;19.30;nan;99609.69;5053631;28;20284;-79
2023/09/08 04:47:37;;;;;;;8.37;7.57;;;;;;;19.28;nan;99616.16;5036257;28;20543;-78
2023/09/08 04:50:03;;;;;;;10.03;8.20;;;;;;;19.26;nan;99607.50;5035987;28;20297;-79
2023/09/08 04:52:29;;;;;;;13.60;8.20;;;;;;;19.26;nan;99607.50;5055176;28;20482;-78
2023/09/08 04:54:54;;;;;;;9.50;8.10;;;;;;;19.27;nan;99603.84;5036959;28;20190;-79
2023/09/08 04:57:20;;;;;;;8.93;8.03;;;;;;;19.27;nan;99610.00;5035800;28;20209;-78
2023/09/08 04:59:46;;;;;;;8.20;7.37;;;;;;;19.28;nan;99605.50;5035150;28;20198;-78
2023/09/08 05:02:12;;;;;;;8.13;7.33;;;;;;;19.28;nan;99605.50;5054679;28;20435;-78
2023/09/08 05:04:38;;;;;;;9.37;8.17;;;;;;;19.29;nan;99615.19;5053507;28;20203;-78
2023/09/08 05:07:03;;;;;;;10.48;9.38;;;;;;;19.32;nan;99612.22;5037328;28;20438;-78
2023/09/08 05:09:29;;;;;;;12.43;9.20;;;;;;;19.32;nan;99617.53;5037334;28;20239;-78
2023/09/08 05:11:54;;;;;;;11.63;8.23;;;;;;;19.32;nan;99614.88;5056070;28;20199;-79
2023/09/08 05:14:19;;;;;;;11.40;8.23;;;;;;;19.30;nan;99619.50;5034826;28;20203;-78
2023/09/08 05:16:46;;;;;;;9.27;8.30;;;;;;;19.30;nan;99619.50;5033197;28;20317;-79
2023/09/08 05:19:14;;;;;;;9.57;8.57;;;;;;;19.31;nan;99615.84;5034825;28;20197;-78
2023/09/08 05:21:41;;;;;;;10.90;7.97;;;;;;;19.34;nan;99623.56;5033155;28;20462;-78
2023/09/08 05:24:08;;;;;;;10.93;9.80;;;;;;;19.36;nan;99629.53;5034384;28;20514;-78
2023/09/08 05:26:36;;;;;;;11.43;9.00;;;;;;;19.38;nan;99623.06;5034542;28;20448;-78
2023/09/08 05:29:02;;;;;;;13.20;9.33;;;;;;;19.42;nan;99623.63;5054582;28;20658;-79
2023/09/08 05:31:27;;;;;;;10.90;8.30;;;;;;;19.44;nan;99627.81;5036229;28;20992;-78
2023/09/08 05:33:53;;;;;;;9.97;8.50;;;;;;;19.47;nan;99632.00;5036721;28;20205;-78
2023/09/08 05:36:20;;;;;;;8.80;8.00;;;;;;;19.55;nan;99634.72;5035645;28;20197;-78
2023/09/08 05:38:45;;;;;;;12.10;8.27;;;;;;;19.61;nan;99630.59;5037359;28;21092;-78
2023/09/08 05:41:10;;;;;;;9.57;8.67;;;;;;;19.67;nan;99627.34;5034576;28;20973;-78
2023/09/08 05:43:36;;;;;;;10.37;8.83;;;;;;;19.73;nan;99633.88;5037433;28;20198;-78
2023/09/08 05:46:02;;;;;;;14.07;8.50;;;;;;;19.78;nan;99626.25;5038902;28;20421;-78
2023/09/08 05:48:27;;;;;;;17.13;9.17;;;;;;;19.83;nan;99634.59;5036431;28;20202;-78
2023/09/08 05:50:53;;;;;;;10.40;7.53;;;;;;;19.87;nan;99633.28;5037874;28;20214;-78
2023/09/08 05:53:18;;;;;;;9.60;8.57;;;;;;;19.93;nan;99632.69;5037190;28;20202;-78
2023/09/08 05:55:44;;;;;;;10.70;9.07;;;;;;;20.15;nan;99633.13;5056032;28;20198;-78
2023/09/08 05:58:10;;;;;;;11.40;8.60;;;;;;;20.61;nan;99641.72;5025044;28;20207;-78
2023/09/08 06:00:36;;;;;;;9.90;8.70;;;;;;;21.12;nan;99634.50;5031340;28;20310;-77
2023/09/08 06:03:02;;;;;;;10.67;8.70;;;;;;;21.49;nan;99638.53;5028403;28;20550;-78
2023/09/08 06:05:28;;;;;;;11.13;8.30;;;;;;;21.61;nan;99642.56;5031217;28;20195;-77
2023/09/08 06:07:54;;;;;;;9.70;8.30;;;;;;;21.60;nan;99644.41;5028948;28;20432;-78
2023/09/08 06:10:19;;;;;;;9.50;8.40;;;;;;;21.53;nan;99645.25;5027888;28;20720;-77
2023/09/08 06:12:45;;;;;;;10.23;8.90;;;;;;;21.42;nan;99647.22;5029187;28;21105;-77
2023/09/08 06:15:10;;;;;;;10.80;8.63;;;;;;;21.40;nan;99646.56;5049399;28;20279;-78
2023/09/08 06:17:36;;;;;;;9.03;8.03;;;;;;;21.70;nan;99644.22;5030216;28;20305;-77
2023/09/08 06:20:02;;;;;;;10.73;8.30;;;;;;;22.21;nan;99641.31;5023899;28;20239;-77
2023/09/08 06:22:28;;;;;;;10.37;8.00;;;;;;;22.74;nan;99639.75;5027466;28;20203;-79
2023/09/08 06:24:53;;;;;;;11.57;8.93;;;;;;;23.02;nan;99639.28;5034088;28;20447;-79
2023/09/08 06:27:18;;;;;;;12.60;8.27;;;;;;;23.04;nan;99632.75;5047184;28;20200;-79
2023/09/08 06:29:44;;;;;;;9.67;8.87;;;;;;;23.00;nan;99635.94;5031619;28;20221;-80
2023/09/08 06:32:11;;;;;;;9.30;8.40;;;;;;;22.89;nan;99637.16;5033861;28;20180;-79
2023/09/08 06:34:39;;;;;;;9.53;8.10;;;;;;;22.77;nan;99642.09;5031921;28;20443;-80
2023/09/08 06:37:05;;;;;;;11.03;8.90;;;;;;;22.64;nan;99642.66;5029783;28;20434;-79
2023/09/08 06:39:31;;;;;;;9.70;8.80;;;;;;;22.52;nan;99641.34;5036300;28;20292;-80
2023/09/08 06:41:57;;;;;;;10.70;9.37;;;;;;;22.45;nan;99649.25;5040151;28;20842;-80
2023/09/08 06:44:23;;;;;;;9.53;8.67;;;;;;;22.40;nan;99648.94;5058221;28;20983;-80
2023/09/08 06:46:48;;;;;;;8.77;7.77;;;;;;;22.35;nan;99642.44;5060049;28;20812;-80
2023/09/08 06:49:14;;;;;;;9.17;8.20;;;;;;;22.33;nan;99639.09;5040842;28;20421;-80
2023/09/08 06:51:39;;;;;;;8.97;8.07;;;;;;;22.29;nan;99643.97;5043586;28;20207;-80
2023/09/08 06:54:05;;;;;;;21.67;9.10;;;;;;;22.28;nan;99642.31;5061000;28;20185;-80
2023/09/08 06:56:37;;;;;;;9.37;8.37;;;;;;;22.28;nan;99648.47;5043178;28;20192;-80
2023/09/08 06:59:03;;;;;;;9.87;7.90;;;;;;;22.25;nan;99632.78;5038865;28;20486;-80
2023/09/08 07:01:29;;;;;;;9.67;8.60;;;;;;;22.28;nan;99644.97;5025243;28;20448;-80
2023/09/08 07:03:54;;;;;;;10.60;9.27;;;;;;;22.35;nan;99647.78;5063009;28;20231;-80
2023/09/08 07:06:22;;;;;;;9.67;8.67;;;;;;;22.42;nan;99643.41;5023770;28;20529;-81
2023/09/08 07:08:51;;;;;;;10.00;8.60;;;;;;;22.51;nan;99645.88;5033000;28;20467;-80
2023/09/08 07:11:18;;;;;;;8.33;7.53;;;;;;;22.58;nan;99638.00;5031837;28;20473;-80
2023/09/08 07:13:44;;;;;;;9.83;9.03;;;;;;;22.69;nan;99650.16;5033734;28;20430;-80
2023/09/08 07:16:10;;;;;;;9.97;9.00;;;;;;;22.81;nan;99650.59;5025770;28;20443;-79
2023/09/08 07:18:37;;;;;;;9.73;8.53;;;;;;;22.89;nan;99653.22;5028857;28;20467;-77
2023/09/08 07:21:04;;;;;;;9.43;8.50;;;;;;;22.97;nan;99646.00;5043999;28;20443;-78
2023/09/08 07:23:29;;;;;;;9.80;8.10;;;;;;;23.02;nan;99648.16;5022241;28;20455;-77
2023/09/08 07:25:55;;;;;;;8.07;7.27;;;;;;;23.09;nan;99645.63;5025509;28;20188;-78
2023/09/08 07:28:24;;;;;;;9.90;8.03;;;;;;;23.20;nan;99653.25;5025689;28;20225;-78
2023/09/08 07:30:51;;;;;;;8.53;7.73;;;;;;;23.33;nan;99639.22;5025055;28;21134;-79
2023/09/08 07:33:17;;;;;;;8.83;7.93;;;;;;;23.83;nan;99640.50;5039974;28;21399;-77
2023/09/08 07:35:43;;;;;;;9.80;7.87;;;;;;;24.71;nan;99645.06;5027811;28;20191;-79
2023/09/08 07:38:08;;;;;;;8.77;7.80;;;;;;;25.65;nan;99635.25;5031828;28;20208;-78
2023/09/08 07:40:34;;;;;;;8.50;7.70;;;;;;;26.59;nan;99641.09;5031975;28;20210;-79
2023/09/08 07:42:59;;;;;;;8.20;7.50;;;;;;;27.34;nan;99625.75;5030841;28;20200;-78
2023/09/08 07:45:25;;;;;;;11.93;7.80;;;;;;;27.87;nan;99633.06;5049832;28;20189;-80
2023/09/08 07:47:51;;;;;;;8.17;7.40;;;;;;;28.19;nan;99625.94;5047267;28;20203;-79
2023/09/08 07:50:21;;;;;;;8.10;7.30;;;;;;;28.54;nan;99631.00;5053340;28;20235;-78
2023/09/08 07:52:48;;;;;;;7.73;6.90;;;;;;;28.77;nan;99633.22;5057646;28;20201;-78
2023/09/08 07:55:14;;;;;;;8.00;6.40;;;;;;;29.17;nan;99630.31;5051294;28;20455;-78
2023/09/08 07:57:42;;;;;;;7.97;6.90;;;;;;;29.73;nan;99628.63;5044519;28;20497;-80
2023/09/08 08:00:10;;;;;;;8.40;7.60;;;;;;;30.33;nan;99626.19;5042105;28;20451;-78
2023/09/08 08:02:39;;;;;;;8.17;7.30;;;;;;;30.90;nan;99620.50;5049017;28;20447;-78
2023/09/08 08:05:06;;;;;;;7.30;6.60;;;;;;;31.30;nan;99630.75;5049765;28;20451;-78
2023/09/08 08:07:31;;;;;;;6.80;6.10;;;;;;;31.82;nan;99621.97;5052274;28;20459;-78
2023/09/08 08:09:56;;;;;;;8.50;7.80;;;;;;;32.29;nan;99621.94;5053720;28;20510;-79
2023/09/08 08:12:22;;;;;;;9.30;7.53;;;;;;;32.41;nan;99614.59;5054887;28;20545;-80
2023/09/08 08:14:47;;;;;;;7.93;7.13;;;;;;;32.54;nan;99622.53;5054864;28;20194;-78
2023/09/08 08:17:13;;;;;;;7.20;6.50;;;;;;;32.75;nan;99617.47;5053331;28;20193;-78
2023/09/08 08:19:38;;;;;;;8.00;7.17;;;;;;;32.94;nan;99618.91;5054369;28;20681;-80
2023/09/08 08:22:03;;;;;;;8.57;7.87;;;;;;;33.18;nan;99625.09;5055901;28;20197;-78
2023/09/08 08:24:29;;;;;;;7.90;6.97;;;;;;;33.34;nan;99618.00;5054770;28;20193;-80
2023/09/08 08:26:54;;;;;;;7.97;7.13;;;;;;;33.42;nan;99620.31;5055441;28;20221;-79
2023/09/08 08:29:20;;;;;;;7.97;7.17;;;;;;;33.53;nan;99623.22;5057263;28;20953;-78
2023/09/08 08:31:45;;;;;;;7.00;6.40;;;;;;;33.55;nan;99623.84;5055629;28;20626;-79
2023/09/08 08:34:10;;;;;;;9.27;7.93;;;;;;;33.51;nan;99626.16;5054597;28;20693;-78
2023/09/08 08:36:36;;;;;;;9.27;7.87;;;;;;;33.54;nan;99628.47;5052803;28;20447;-79
2023/09/08 08:39:02;;;;;;;8.80;8.00;;;;;;;33.38;nan;99623.78;5061644;28;20489;-86
2023/09/08 08:41:29;;;;;;;9.37;8.57;;;;;;;33.40;nan;99624.38;5057877;28;20199;-82
2023/09/08 08:43:55;;;;;;;7.10;6.50;;;;;;;33.41;nan;99623.31;5052668;28;20455;-82
2023/09/08 08:46:22;;;;;;;7.50;6.80;;;;;;;33.42;nan;99630.41;5048846;28;20537;-82
2023/09/08 08:48:49;;;;;;;8.40;7.60;;;;;;;33.34;nan;99623.47;5020255;28;20459;-82
2023/09/08 08:51:17;;;;;;;8.23;7.27;;;;;;;33.26;nan;99616.50;5022068;28;20479;-82
2023/09/08 08:53:43;;;;;;;8.30;7.50;;;;;;;33.07;nan;99615.09;5041966;28;20489;-82
2023/09/08 08:56:09;;;;;;;8.90;7.50;;;;;;;32.96;nan;99616.78;5040365;28;20455;-82
2023/09/08 08:58:39;;;;;;;8.10;7.30;;;;;;;32.84;nan;99616.84;5023942;28;20209;-82
2023/09/08 09:01:06;;;;;;;8.20;7.30;;;;;;;32.77;nan;99610.72;5043780;28;20473;-82
2023/09/08 09:03:34;;;;;;;8.47;7.60;;;;;;;32.51;nan;99614.81;5048504;28;20438;-82
2023/09/08 09:06:00;;;;;;;9.90;7.90;;;;;;;32.38;nan;99613.19;5043603;28;20486;-82
2023/09/08 09:08:26;;;;;;;8.23;7.43;;;;;;;32.03;nan;99599.69;5041806;28;20478;-82
2023/09/08 09:10:53;;;;;;;8.10;7.40;;;;;;;31.59;nan;99601.06;5039539;28;21089;-82
2023/09/08 09:13:18;;;;;;;9.60;7.97;;;;;;;31.27;nan;99604.91;5024684;28;20463;-82
2023/09/08 09:15:45;;;;;;;7.23;6.63;;;;;;;31.05;nan;99601.06;5023353;28;20458;-82
2023/09/08 09:18:11;;;;;;;10.03;7.30;;;;;;;30.97;nan;99607.63;5046197;28;20390;-82
2023/09/08 09:20:36;;;;;;;10.33;8.13;;;;;;;30.84;nan;99608.69;5045013;28;20533;-82
2023/09/08 09:23:03;;;;;;;7.17;6.40;;;;;;;30.75;nan;99612.72;5041780;28;20738;-82
2023/09/08 09:25:30;;;;;;;9.90;6.93;;;;;;;30.80;nan;99606.63;5043407;28;20228;-82
2023/09/08 09:27:58;;;;;;;8.73;7.60;;;;;;;30.85;nan;99612.22;5043531;28;20456;-81
2023/09/08 09:30:25;;;;;;;7.70;6.90;;;;;;;30.84;nan;99610.56;5042946;28;20505;-82
2023/09/08 09:33:02;;;;;;;8.17;6.87;;;;;;;30.77;nan;99610.63;5042275;28;20875;-82
2023/09/08 09:35:40;;;;;;;7.60;6.90;;;;;;;30.80;nan;99603.91;5040189;28;20951;-82
2023/09/08 09:38:06;;;;;;;7.40;6.70;;;;;;;30.88;nan;99609.03;5042576;28;20511;-83
2023/09/08 09:40:32;;;;;;;8.57;7.77;;;;;;;31.03;nan;99605.91;5041521;28;20447;-82
2023/09/08 09:42:58;;;;;;;7.70;6.90;;;;;;;31.04;nan;99607.56;5041806;28;20263;-83
2023/09/08 09:45:27;;;;;;;8.30;7.10;;;;;;;31.14;nan;99604.28;5043951;28;20967;-82
2023/09/08 09:47:55;;;;;;;7.03;6.53;;;;;;;31.22;nan;99606.66;5043406;28;20471;-82
2023/09/08 09:50:42;;;;;;;7.33;6.50;;;;;;;31.22;nan;99602.06;5042160;28;21494;-82
2023/09/08 09:53:08;;;;;;;6.70;6.13;;;;;;;31.25;nan;99598.88;5042008;28;20455;-82
2023/09/08 09:55:35;;;;;;;7.27;6.57;;;;;;;31.33;nan;99597.72;5044749;28;20458;-83
2023/09/08 09:58:03;;;;;;;7.77;6.53;;;;;;;31.43;nan;99595.28;5043370;28;20316;-82
2023/09/08 10:00:31;;;;;;;7.67;6.93;;;;;;;31.40;nan;99601.16;5044169;28;20447;-82
2023/09/08 10:02:57;;;;;;;8.03;7.33;;;;;;;31.24;nan;99588.25;5027672;28;20452;-82
2023/09/08 10:05:26;;;;;;;7.93;6.60;;;;;;;31.16;nan;99596.72;5026729;28;22485;-82
2023/09/08 10:07:52;;;;;;;7.43;6.83;;;;;;;31.17;nan;99587.53;5045519;28;20369;-82
2023/09/08 10:10:19;;;;;;;6.93;6.43;;;;;;;31.23;nan;99584.72;5024339;28;20462;-82
2023/09/08 10:12:52;;;;;;;6.80;6.30;;;;;;;31.22;nan;99584.97;5042281;28;20653;-82
2023/09/08 10:15:21;;;;;;;7.37;6.40;;;;;;;31.30;nan;99588.16;5044794;28;20513;-82
2023/09/08 10:17:52;;;;;;;9.27;7.13;;;;;;;31.42;nan;99579.22;5040043;28;20457;-82
2023/09/08 10:20:21;;;;;;;6.83;6.13;;;;;;;31.43;nan;99579.00;5040154;28;20455;-82
2023/09/08 10:22:54;;;;;;;8.10;7.40;;;;;;;31.34;nan;99577.66;5043100;28;20481;-82
2023/09/08 10:25:24;;;;;;;7.63;6.93;;;;;;;31.36;nan;99574.72;5043612;28;20451;-82
2023/09/08 10:27:50;;;;;;;6.40;5.90;;;;;;;31.37;nan;99570.97;5024679;28;20440;-82
2023/09/08 10:30:17;;;;;;;11.37;6.33;;;;;;;31.48;nan;99572.84;5022656;28;20498;-82
2023/09/08 10:32:43;;;;;;;7.40;6.70;;;;;;;31.55;nan;99568.13;5025945;28;20654;-82
2023/09/08 10:35:09;;;;;;;7.90;7.20;;;;;;;31.54;nan;99571.91;5043483;28;20880;-83
2023/09/08 10:37:35;;;;;;;6.60;6.10;;;;;;;31.60;nan;99573.69;5041450;28;20529;-83
2023/09/08 10:40:22;;;;;;;7.47;6.77;;;;;;;31.74;nan;99566.13;5042677;28;20451;-82
2023/09/08 10:42:47;;;;;;;7.37;6.67;;;;;;;31.88;nan;99562.09;5042390;28;20193;-82
2023/09/08 10:45:20;;;;;;;7.10;5.70;;;;;;;31.99;nan;99565.06;5043286;28;20454;-82
2023/09/08 10:47:45;;;;;;;7.80;7.00;;;;;;;31.98;nan;99560.72;5045127;28;20295;-82
2023/09/08 10:50:25;;;;;;;6.50;5.90;;;;;;;32.01;nan;99562.94;5043713;28;20479;-83
2023/09/08 10:53:12;;;;;;;7.13;6.43;;;;;;;32.15;nan;99557.00;5044994;28;20203;-83
2023/09/08 10:55:42;;;;;;;8.03;7.33;;;;;;;32.23;nan;99555.78;5044687;28;20545;-83
2023/09/08 10:58:10;;;;;;;6.20;5.70;;;;;;;32.30;nan;99550.22;5045489;28;20436;-82
2023/09/08 11:00:46;;;;;;;8.13;7.00;;;;;;;32.28;nan;99555.91;5044052;28;21162;-82
2023/09/08 11:03:13;;;;;;;8.03;5.50;;;;;;;32.21;nan;99544.31;5044659;28;20782;-82
2023/09/08 11:05:39;;;;;;;7.60;6.93;;;;;;;32.13;nan;99547.41;5045136;28;20722;-83
2023/09/08 11:08:05;;;;;;;5.97;5.47;;;;;;;32.06;nan;99547.56;5047027;28;20443;-82
2023/09/08 11:10:32;;;;;;;7.80;6.60;;;;;;;31.96;nan;99541.91;5044756;28;20205;-82
2023/09/08 11:12:59;;;;;;;6.50;5.90;;;;;;;31.88;nan;99548.50;5048791;28;20447;-83
2023/09/08 11:15:25;;;;;;;6.50;5.90;;;;;;;31.87;nan;99549.59;5046847;28;20452;-82
2023/09/08 11:17:51;;;;;;;6.83;6.23;;;;;;;31.82;nan;99546.75;5043332;28;20458;-83
2023/09/08 11:20:26;;;;;;;6.53;6.03;;;;;;;31.76;nan;99542.28;5045840;28;20212;-83
2023/09/08 11:22:52;;;;;;;5.57;5.17;;;;;;;31.64;nan;99544.97;5046215;28;20819;-83
2023/09/08 11:25:20;;;;;;;6.50;5.50;;;;;;;31.65;nan;99538.50;5045614;28;21229;-82
2023/09/08 11:27:46;;;;;;;6.30;5.63;;;;;;;31.71;nan;99536.72;5042881;28;20297;-82
2023/09/08 11:30:12;;;;;;;6.13;5.63;;;;;;;31.74;nan;99538.97;5045633;28;20531;-82
2023/09/08 11:32:39;;;;;;;5.70;4.73;;;;;;;31.70;nan;99538.63;5044593;28;20600;-84
2023/09/08 11:35:09;;;;;;;5.67;5.17;;;;;;;31.69;nan;99547.81;5050476;28;20203;-87
2023/09/08 11:37:41;;;;;;;6.33;4.90;;;;;;;31.77;nan;99537.66;5052097;28;20952;-86
2023/09/08 11:40:12;;;;;;;5.57;5.07;;;;;;;31.82;nan;99535.88;5054470;28;20800;-83
2023/09/08 11:42:43;;;;;;;5.77;5.27;;;;;;;31.83;nan;99534.81;5051788;28;20514;-83
2023/09/08 11:45:14;;;;;;;6.07;5.47;;;;;;;31.88;nan;99537.63;5053256;28;20720;-84
2023/09/08 11:47:41;;;;;;;5.97;5.47;;;;;;;31.87;nan;99536.00;5055374;28;20447;-85